Time;durP1;ratioP1;P1;durP2;ratioP2;P2;SDS_P1;SDS_P2;PMS_P1;PMS_P2;Temp;Humidity;BMP_temperature;BMP_pressure;BME280_temperature;BME280_humidity;BME280_pressure;Samples;Min_cycle;Max_cycle;Signal;HPM_P1;HPM_P2
2022/08/26 00:00:35;;;;;;;8.40;6.80;;;23.90;99.90;;;;;;5098676;28;20463;-55
2022/08/26 00:03:02;;;;;;;8.80;7.90;;;23.80;99.90;;;;;;5098211;28;20536;-48
2022/08/26 00:05:28;;;;;;;12.77;8.10;;;23.80;99.90;;;;;;5098586;28;20472;-53
2022/08/26 00:07:56;;;;;;;13.80;7.27;;;23.80;99.90;;;;;;5098496;28;20465;-54
2022/08/26 00:10:23;;;;;;;11.23;6.90;;;23.80;99.90;;;;;;5098460;28;20895;-55
2022/08/26 00:12:51;;;;;;;8.70;7.43;;;23.80;99.90;;;;;;5098029;28;20508;-53
2022/08/26 00:15:20;;;;;;;12.40;7.40;;;23.70;99.90;;;;;;5098275;28;20465;-53
2022/08/26 00:17:50;;;;;;;7.07;6.37;;;23.70;99.90;;;;;;5098456;28;20525;-51
2022/08/26 00:20:21;;;;;;;12.50;7.73;;;23.70;99.90;;;;;;5098462;28;20773;-54
2022/08/26 00:22:48;;;;;;;10.40;7.43;;;23.70;99.90;;;;;;5098061;28;20429;-56
2022/08/26 00:25:15;;;;;;;17.00;8.30;;;23.70;99.90;;;;;;5098659;28;20468;-55
2022/08/26 00:27:42;;;;;;;10.47;7.40;;;23.70;99.90;;;;;;5098353;28;20552;-49
2022/08/26 00:30:17;;;;;;;8.67;7.47;;;23.70;99.90;;;;;;5098361;28;20539;-55
2022/08/26 00:32:44;;;;;;;12.20;8.17;;;23.60;99.90;;;;;;5098235;28;20464;-53
2022/08/26 00:35:13;;;;;;;11.73;7.57;;;23.60;99.90;;;;;;5098672;28;20532;-55
2022/08/26 00:37:40;;;;;;;11.03;8.50;;;23.60;99.90;;;;;;5098150;28;20489;-57
2022/08/26 00:40:10;;;;;;;9.90;8.13;;;23.50;99.90;;;;;;5098398;28;20433;-50
2022/08/26 00:42:37;;;;;;;10.87;8.97;;;23.50;99.90;;;;;;5098047;28;20453;-50
2022/08/26 00:45:05;;;;;;;11.70;7.43;;;23.50;99.90;;;;;;5098487;28;20429;-53
2022/08/26 00:47:35;;;;;;;19.67;8.47;;;23.50;99.90;;;;;;5098134;28;20451;-54
2022/08/26 00:50:06;;;;;;;11.50;7.73;;;23.50;99.90;;;;;;5098406;28;20483;-52
2022/08/26 00:52:35;;;;;;;12.33;8.93;;;23.50;99.90;;;;;;5097965;28;20484;-50
2022/08/26 00:55:10;;;;;;;15.07;8.90;;;23.40;99.90;;;;;;5098134;28;20468;-54
2022/08/26 00:57:37;;;;;;;13.03;7.80;;;23.40;99.90;;;;;;5098044;28;21062;-55
2022/08/26 01:00:10;;;;;;;13.97;7.60;;;23.40;99.90;;;;;;5097820;28;20547;-54
2022/08/26 01:02:38;;;;;;;13.80;7.67;;;23.50;99.90;;;;;;5098137;28;20436;-55
2022/08/26 01:05:07;;;;;;;13.00;8.50;;;23.40;99.90;;;;;;5097841;28;20771;-53
2022/08/26 01:07:35;;;;;;;8.97;8.03;;;23.40;99.90;;;;;;5098291;28;20440;-53
2022/08/26 01:10:08;;;;;;;10.13;8.67;;;23.40;99.90;;;;;;5097788;28;20481;-52
2022/08/26 01:12:39;;;;;;;15.80;7.93;;;23.40;99.90;;;;;;5097903;28;20548;-54
2022/08/26 01:15:08;;;;;;;9.27;8.27;;;23.50;99.90;;;;;;5098321;28;20438;-51
2022/08/26 01:17:37;;;;;;;9.57;8.33;;;23.50;99.90;;;;;;5097388;28;20564;-61
2022/08/26 01:20:24;;;;;;;9.17;7.70;;;23.50;99.90;;;;;;5096579;28;20441;-61
2022/08/26 01:22:57;;;;;;;13.83;7.97;;;23.60;99.90;;;;;;5097519;28;20465;-61
2022/08/26 01:25:26;;;;;;;16.90;7.77;;;23.60;99.90;;;;;;5101133;28;20429;-63
2022/08/26 01:27:56;;;;;;;16.10;8.00;;;23.60;99.90;;;;;;5100338;28;20743;-62
2022/08/26 01:30:23;;;;;;;9.23;7.37;;;23.60;99.90;;;;;;5099742;28;20985;-62
2022/08/26 01:32:51;;;;;;;14.33;7.00;;;23.70;99.90;;;;;;5099921;28;20462;-62
2022/08/26 01:35:19;;;;;;;17.03;8.87;;;23.70;99.90;;;;;;5099699;28;20763;-58
2022/08/26 01:37:49;;;;;;;8.37;7.57;;;23.60;99.90;;;;;;5099396;28;20457;-60
2022/08/26 01:40:22;;;;;;;9.47;7.57;;;23.70;99.90;;;;;;5099977;28;20445;-58
2022/08/26 01:42:50;;;;;;;14.80;8.47;;;23.60;99.90;;;;;;5099772;28;20452;-61
2022/08/26 01:45:21;;;;;;;10.33;7.77;;;23.60;99.90;;;;;;5100054;28;20465;-61
2022/08/26 01:47:50;;;;;;;11.47;7.67;;;23.60;99.90;;;;;;5100151;28;20529;-62
2022/08/26 01:50:20;;;;;;;13.40;8.00;;;23.50;99.90;;;;;;5100316;28;20481;-62
2022/08/26 01:52:49;;;;;;;11.60;8.53;;;23.50;99.90;;;;;;5100724;28;20553;-62
2022/08/26 01:55:20;;;;;;;11.33;8.90;;;23.50;99.90;;;;;;5100748;28;20477;-64
2022/08/26 01:57:49;;;;;;;18.17;8.30;;;23.50;99.90;;;;;;5100354;28;20476;-62
2022/08/26 02:00:17;;;;;;;13.50;8.10;;;23.50;99.90;;;;;;5100100;28;20562;-62
2022/08/26 02:02:47;;;;;;;13.07;8.03;;;23.50;99.90;;;;;;5099858;28;20545;-60
2022/08/26 02:05:17;;;;;;;13.40;8.00;;;23.50;99.90;;;;;;5099265;28;20505;-62
2022/08/26 02:07:45;;;;;;;12.83;7.50;;;23.40;99.90;;;;;;5100329;28;20418;-59
2022/08/26 02:10:12;;;;;;;8.50;7.40;;;23.40;99.90;;;;;;5099559;28;20485;-60
2022/08/26 02:12:41;;;;;;;12.43;7.40;;;23.30;99.90;;;;;;5099015;28;20477;-64
2022/08/26 02:15:12;;;;;;;9.50;7.70;;;23.30;99.90;;;;;;5099490;28;20454;-56
2022/08/26 02:17:43;;;;;;;11.00;7.93;;;23.30;99.90;;;;;;5099257;28;20548;-62
2022/08/26 02:20:13;;;;;;;14.40;8.03;;;23.30;99.90;;;;;;5099002;28;20458;-62
2022/08/26 02:22:41;;;;;;;10.07;7.97;;;23.20;99.90;;;;;;5098877;28;20433;-62
2022/08/26 02:25:16;;;;;;;12.23;7.63;;;23.20;99.90;;;;;;5098981;28;20498;-58
2022/08/26 02:27:47;;;;;;;12.63;7.73;;;23.20;99.90;;;;;;5098340;28;20433;-58
2022/08/26 02:30:17;;;;;;;9.90;8.43;;;23.20;99.90;;;;;;5099037;28;20466;-62
2022/08/26 02:32:45;;;;;;;13.50;8.17;;;23.10;99.90;;;;;;5098675;28;20430;-59
2022/08/26 02:35:14;;;;;;;12.93;8.23;;;23.10;99.90;;;;;;5097356;28;20473;-63
2022/08/26 02:37:41;;;;;;;12.23;8.57;;;23.10;99.90;;;;;;5098973;28;20446;-62
2022/08/26 02:40:11;;;;;;;19.60;8.30;;;23.10;99.90;;;;;;5098390;28;20941;-60
2022/08/26 02:42:38;;;;;;;15.87;8.43;;;23.10;99.90;;;;;;5098518;28;20782;-58
2022/08/26 02:45:08;;;;;;;9.03;7.80;;;23.10;99.90;;;;;;5098812;28;20470;-58
2022/08/26 02:47:35;;;;;;;9.00;8.10;;;23.10;99.90;;;;;;5098294;28;20426;-62
2022/08/26 02:50:02;;;;;;;12.30;7.80;;;23.10;99.90;;;;;;5098365;28;20480;-58
2022/08/26 02:52:29;;;;;;;15.73;7.80;;;23.10;99.90;;;;;;5098542;28;20557;-62
2022/08/26 02:54:56;;;;;;;14.93;7.93;;;23.10;99.90;;;;;;5098309;28;20722;-57
2022/08/26 02:57:23;;;;;;;14.70;8.73;;;23.10;99.90;;;;;;5097897;28;20512;-58
2022/08/26 02:59:50;;;;;;;12.60;7.80;;;23.00;99.90;;;;;;5097930;28;20461;-63
2022/08/26 03:02:18;;;;;;;16.20;8.10;;;23.00;99.90;;;;;;5098300;28;20548;-63
2022/08/26 03:04:45;;;;;;;15.60;8.20;;;23.10;99.90;;;;;;5098210;28;20446;-54
2022/08/26 03:07:12;;;;;;;14.87;9.60;;;23.10;99.90;;;;;;5097811;28;20474;-61
2022/08/26 03:09:38;;;;;;;15.47;8.27;;;23.10;99.90;;;;;;5098032;28;20453;-63
2022/08/26 03:12:06;;;;;;;16.40;8.03;;;23.10;99.90;;;;;;5097688;28;20549;-63
2022/08/26 03:14:33;;;;;;;11.13;8.83;;;23.10;99.90;;;;;;5098428;28;20445;-65
2022/08/26 03:16:59;;;;;;;13.73;8.47;;;23.10;99.90;;;;;;5097724;28;20458;-62
2022/08/26 03:19:29;;;;;;;13.37;7.10;;;23.10;99.90;;;;;;5098008;28;20857;-62
2022/08/26 03:21:55;;;;;;;14.20;8.50;;;23.10;99.90;;;;;;5097658;28;20484;-60
2022/08/26 03:24:22;;;;;;;17.17;8.67;;;23.10;99.90;;;;;;5098034;28;20854;-63
2022/08/26 03:26:49;;;;;;;19.33;8.57;;;23.10;99.90;;;;;;5098529;28;20479;-56
2022/08/26 03:32:02;;;;;;;8.93;8.13;;;23.10;99.90;;;;;;5097911;28;20480;-60
2022/08/26 03:34:30;;;;;;;12.40;8.93;;;23.10;99.90;;;;;;5098314;28;20488;-60
2022/08/26 03:36:57;;;;;;;15.40;9.00;;;23.10;99.90;;;;;;5098189;28;20559;-62
2022/08/26 03:39:25;;;;;;;13.20;8.60;;;23.10;99.90;;;;;;5098459;28;20519;-63
2022/08/26 03:41:51;;;;;;;14.60;8.20;;;23.10;99.90;;;;;;5098166;28;20508;-67
2022/08/26 03:44:19;;;;;;;23.40;9.50;;;23.10;99.90;;;;;;5097970;28;20521;-62
2022/08/26 03:46:46;;;;;;;15.47;8.73;;;23.10;99.90;;;;;;5097597;28;20469;-62
2022/08/26 03:49:13;;;;;;;12.60;7.67;;;23.10;99.90;;;;;;5097708;28;20540;-59
2022/08/26 03:51:41;;;;;;;13.60;7.50;;;23.10;99.90;;;;;;5097527;28;20492;-63
2022/08/26 03:54:08;;;;;;;8.93;7.53;;;23.10;99.90;;;;;;5097063;28;20487;-63
2022/08/26 03:56:35;;;;;;;16.23;7.90;;;23.00;99.90;;;;;;5096984;28;20456;-61
2022/08/26 03:59:02;;;;;;;13.50;8.10;;;23.00;99.90;;;;;;5096978;28;20782;-62
2022/08/26 04:01:30;;;;;;;8.80;7.70;;;23.00;99.90;;;;;;5097267;28;20473;-62
2022/08/26 04:03:57;;;;;;;10.23;7.73;;;23.00;99.90;;;;;;5096590;28;20933;-61
2022/08/26 04:06:24;;;;;;;14.17;8.57;;;23.00;99.90;;;;;;5097102;28;20444;-62
2022/08/26 04:08:53;;;;;;;11.27;7.97;;;23.00;99.90;;;;;;5097016;28;20465;-59
2022/08/26 04:11:23;;;;;;;12.80;8.40;;;23.00;99.90;;;;;;5096866;28;20825;-61
2022/08/26 04:13:50;;;;;;;10.70;8.20;;;22.90;99.90;;;;;;5096717;28;20452;-59
2022/08/26 04:16:17;;;;;;;11.17;8.27;;;22.90;99.90;;;;;;5096939;28;20437;-61
2022/08/26 04:18:44;;;;;;;15.80;8.50;;;22.90;99.90;;;;;;5096865;28;20460;-62
2022/08/26 04:21:12;;;;;;;15.53;8.63;;;23.00;99.90;;;;;;5096600;28;20461;-62
2022/08/26 04:23:39;;;;;;;14.07;8.00;;;23.00;99.90;;;;;;5097030;28;20552;-60
2022/08/26 04:26:07;;;;;;;20.00;9.13;;;23.00;99.90;;;;;;5096749;28;20855;-62
2022/08/26 04:28:34;;;;;;;12.97;8.60;;;23.00;99.90;;;;;;5096761;28;20452;-62
2022/08/26 04:31:01;;;;;;;10.30;8.53;;;23.00;99.90;;;;;;5096634;28;20495;-61
2022/08/26 04:33:28;;;;;;;13.00;9.03;;;22.90;99.90;;;;;;5096995;28;20456;-61
2022/08/26 04:36:00;;;;;;;10.67;8.70;;;22.90;99.90;;;;;;5096860;28;20460;-61
2022/08/26 04:38:28;;;;;;;11.17;8.27;;;22.90;99.90;;;;;;5096541;28;20441;-59
2022/08/26 04:40:55;;;;;;;12.27;8.50;;;22.90;99.90;;;;;;5096178;28;20930;-61
2022/08/26 04:43:27;;;;;;;19.83;8.93;;;22.90;99.90;;;;;;5096404;28;20445;-61
2022/08/26 04:45:54;;;;;;;12.93;7.93;;;22.90;99.90;;;;;;5097355;28;20468;-60
2022/08/26 04:48:21;;;;;;;12.17;8.23;;;22.90;99.90;;;;;;5097090;28;20450;-65
2022/08/26 04:50:48;;;;;;;15.70;8.97;;;22.90;99.90;;;;;;5096653;28;20477;-59
2022/08/26 04:53:14;;;;;;;14.90;8.43;;;22.90;99.90;;;;;;5096841;28;20484;-63
2022/08/26 04:55:41;;;;;;;14.13;8.50;;;22.90;99.90;;;;;;5096737;28;20449;-63
2022/08/26 04:58:08;;;;;;;16.57;9.30;;;22.90;99.90;;;;;;5097934;28;20445;-63
2022/08/26 05:00:37;;;;;;;12.93;9.07;;;23.00;99.90;;;;;;5100753;28;20521;-62
2022/08/26 05:03:04;;;;;;;15.13;9.33;;;23.00;99.90;;;;;;5100677;28;20449;-60
2022/08/26 05:05:31;;;;;;;11.17;8.97;;;23.00;99.90;;;;;;5100880;28;20540;-62
2022/08/26 05:07:58;;;;;;;12.20;8.80;;;23.00;99.90;;;;;;5098195;28;20452;-62
2022/08/26 05:10:24;;;;;;;11.50;8.10;;;23.00;99.90;;;;;;5099753;28;20465;-62
2022/08/26 05:12:51;;;;;;;14.10;8.33;;;23.00;99.90;;;;;;5100187;28;20430;-63
2022/08/26 05:15:18;;;;;;;13.60;9.17;;;23.10;99.90;;;;;;5099928;28;20487;-63
2022/08/26 05:17:48;;;;;;;14.27;8.73;;;23.10;99.90;;;;;;5100420;28;20452;-63
2022/08/26 05:20:14;;;;;;;16.10;9.47;;;23.10;99.90;;;;;;5100244;28;20475;-61
2022/08/26 05:22:41;;;;;;;10.30;8.33;;;23.10;99.90;;;;;;5100322;28;20455;-60
2022/08/26 05:25:09;;;;;;;15.73;9.20;;;23.20;99.90;;;;;;5099650;28;20449;-55
2022/08/26 05:27:35;;;;;;;12.17;9.07;;;23.20;99.90;;;;;;5100284;28;20465;-59
2022/08/26 05:30:03;;;;;;;18.27;9.00;;;23.30;99.90;;;;;;5100522;28;20437;-56
2022/08/26 05:32:30;;;;;;;18.33;11.10;;;23.30;99.90;;;;;;5099667;28;20489;-60
2022/08/26 05:34:58;;;;;;;17.27;8.77;;;23.40;99.90;;;;;;5100125;28;20445;-61
2022/08/26 05:37:25;;;;;;;13.83;8.67;;;23.40;99.90;;;;;;5099897;28;20510;-66
2022/08/26 05:39:52;;;;;;;17.83;8.40;;;23.40;99.90;;;;;;5100271;28;21087;-63
2022/08/26 05:42:20;;;;;;;12.43;8.33;;;23.50;99.90;;;;;;5100094;28;20506;-60
2022/08/26 05:44:51;;;;;;;11.03;9.13;;;23.50;99.90;;;;;;5100156;28;20448;-61
2022/08/26 05:47:18;;;;;;;14.13;8.97;;;23.60;99.90;;;;;;5100932;28;20433;-62
2022/08/26 05:49:45;;;;;;;13.30;8.67;;;23.60;99.90;;;;;;5102051;28;20957;-58
2022/08/26 05:52:14;;;;;;;13.60;9.40;;;23.60;99.90;;;;;;5100447;28;20588;-62
2022/08/26 05:54:41;;;;;;;14.13;8.03;;;23.70;99.90;;;;;;5099814;28;20568;-62
2022/08/26 05:57:07;;;;;;;18.03;8.67;;;23.70;99.90;;;;;;5100975;28;20449;-63
2022/08/26 05:59:35;;;;;;;20.57;8.93;;;23.80;99.90;;;;;;5100817;28;20540;-69
2022/08/26 06:02:02;;;;;;;25.90;10.37;;;23.80;99.90;;;;;;5100798;28;20429;-67
2022/08/26 06:04:30;;;;;;;15.03;9.70;;;23.80;99.90;;;;;;5100135;28;20449;-63
2022/08/26 06:06:57;;;;;;;16.80;9.43;;;23.90;99.90;;;;;;5099865;28;20558;-63
2022/08/26 06:09:26;;;;;;;11.60;8.77;;;24.00;99.90;;;;;;5099904;28;20445;-63
2022/08/26 06:11:54;;;;;;;10.10;8.43;;;24.00;99.90;;;;;;5100032;28;20480;-62
2022/08/26 06:14:21;;;;;;;18.00;9.50;;;24.00;99.90;;;;;;5099151;28;20459;-64
2022/08/26 06:16:48;;;;;;;18.90;9.27;;;24.00;99.90;;;;;;5099364;28;20504;-61
2022/08/26 06:19:16;;;;;;;18.67;8.93;;;24.10;99.90;;;;;;5116805;28;20444;-54
2022/08/26 06:21:46;;;;;;;15.10;9.70;;;24.20;99.90;;;;;;5119019;28;20558;-62
2022/08/26 06:27:03;;;;;;;18.63;10.90;;;24.30;99.90;;;;;;5118970;28;20432;-47
2022/08/26 06:29:32;;;;;;;14.13;10.80;;;24.30;99.90;;;;;;5118993;28;20434;-59
2022/08/26 06:32:00;;;;;;;13.33;9.13;;;24.40;99.90;;;;;;5103418;28;21000;-63
2022/08/26 06:34:28;;;;;;;17.20;10.10;;;24.40;99.90;;;;;;5101932;28;20564;-59
2022/08/26 06:36:56;;;;;;;18.33;9.50;;;24.50;99.90;;;;;;5100999;28;20464;-58
2022/08/26 06:39:23;;;;;;;13.50;9.13;;;24.60;99.90;;;;;;5100817;28;20750;-62
2022/08/26 06:41:50;;;;;;;11.20;8.70;;;24.60;99.90;;;;;;5100373;28;20444;-60
2022/08/26 06:44:19;;;;;;;13.23;8.93;;;24.70;99.90;;;;;;5100857;28;20774;-60
2022/08/26 06:46:46;;;;;;;30.33;9.50;;;24.70;99.90;;;;;;5100902;28;20448;-60
2022/08/26 06:49:13;;;;;;;11.57;8.27;;;24.80;99.90;;;;;;5100284;28;20960;-60
2022/08/26 06:51:41;;;;;;;11.30;9.47;;;24.90;99.90;;;;;;5100053;28;20834;-62
2022/08/26 06:54:09;;;;;;;17.17;10.00;;;25.00;99.90;;;;;;5100226;28;20446;-56
2022/08/26 06:56:38;;;;;;;13.23;8.50;;;25.10;99.90;;;;;;5100744;28;20470;-58
2022/08/26 06:59:06;;;;;;;11.03;8.37;;;25.30;99.90;;;;;;5100398;28;20464;-57
2022/08/26 07:01:37;;;;;;;11.00;9.10;;;25.40;99.90;;;;;;5099905;28;20466;-59
2022/08/26 07:04:07;;;;;;;19.33;8.50;;;25.50;99.90;;;;;;5099753;28;20442;-59
2022/08/26 07:06:37;;;;;;;16.13;8.70;;;25.60;99.90;;;;;;5100279;28;21009;-59
2022/08/26 07:09:06;;;;;;;10.63;9.43;;;25.70;99.90;;;;;;5100452;28;20457;-59
2022/08/26 07:11:34;;;;;;;11.80;8.73;;;25.70;99.90;;;;;;5098293;28;20477;-59
2022/08/26 07:14:01;;;;;;;17.43;9.90;;;25.80;99.90;;;;;;5097953;28;20496;-59
2022/08/26 07:16:28;;;;;;;10.23;8.03;;;25.90;99.90;;;;;;5097670;28;20541;-58
2022/08/26 07:18:57;;;;;;;15.20;8.10;;;25.90;99.90;;;;;;5098197;28;20973;-59
2022/08/26 07:21:25;;;;;;;10.93;7.43;;;26.00;99.90;;;;;;5097597;28;20528;-56
2022/08/26 07:23:52;;;;;;;21.90;9.70;;;26.10;99.90;;;;;;5098087;28;20449;-58
2022/08/26 07:26:22;;;;;;;13.73;9.30;;;26.20;99.90;;;;;;5098023;28;20449;-57
2022/08/26 07:28:51;;;;;;;13.97;9.20;;;26.30;99.90;;;;;;5097566;28;20496;-56
2022/08/26 07:31:19;;;;;;;10.40;8.10;;;26.30;99.90;;;;;;5097825;28;20445;-59
2022/08/26 07:33:46;;;;;;;11.80;9.17;;;26.40;99.90;;;;;;5096641;28;20483;-58
2022/08/26 07:36:17;;;;;;;11.17;9.40;;;26.50;99.90;;;;;;5097634;28;20497;-62
2022/08/26 07:38:44;;;;;;;16.10;8.80;;;26.60;99.90;;;;;;5098595;28;20553;-60
2022/08/26 07:41:13;;;;;;;13.33;8.67;;;26.70;99.90;;;;;;5098142;28;20993;-63
2022/08/26 07:43:40;;;;;;;13.03;9.40;;;26.80;99.90;;;;;;5097867;28;20469;-55
2022/08/26 07:46:08;;;;;;;15.83;9.10;;;26.90;99.90;;;;;;5097817;28;20488;-59
2022/08/26 07:48:36;;;;;;;11.40;9.00;;;27.10;99.90;;;;;;5097900;28;20526;-60
2022/08/26 07:51:04;;;;;;;13.53;9.00;;;27.20;99.90;;;;;;5095609;28;20441;-60
2022/08/26 07:53:33;;;;;;;10.43;8.43;;;27.40;99.90;;;;;;5095279;28;20472;-60
2022/08/26 07:56:00;;;;;;;14.00;8.70;;;27.60;99.90;;;;;;5095271;28;20441;-60
2022/08/26 07:58:27;;;;;;;11.07;8.80;;;27.90;99.90;;;;;;5095324;28;20481;-61
2022/08/26 08:00:54;;;;;;;17.50;7.70;;;28.20;99.90;;;;;;5094835;28;20472;-61
2022/08/26 08:03:21;;;;;;;12.23;7.63;;;28.80;99.90;;;;;;5094821;28;20934;-59
2022/08/26 08:05:48;;;;;;;12.30;7.40;;;29.90;99.90;;;;;;5095065;28;20453;-62
2022/08/26 08:08:16;;;;;;;9.67;7.00;;;31.00;99.90;;;;;;5095033;28;20465;-61
2022/08/26 08:10:44;;;;;;;14.53;6.97;;;31.90;99.90;;;;;;5094708;28;20505;-60
2022/08/26 08:13:12;;;;;;;10.80;7.80;;;32.70;99.90;;;;;;5094803;28;20524;-55
2022/08/26 08:15:39;;;;;;;10.07;5.83;;;33.50;99.90;;;;;;5094955;28;20441;-59
2022/08/26 08:18:06;;;;;;;12.80;7.50;;;34.20;99.90;;;;;;5094348;28;20473;-56
2022/08/26 08:20:33;;;;;;;8.40;6.93;;;34.90;99.90;;;;;;5094635;28;20445;-59
2022/08/26 08:23:02;;;;;;;14.33;7.53;;;35.90;99.90;;;;;;5094525;28;20477;-58
2022/08/26 08:25:30;;;;;;;11.17;7.23;;;36.80;97.20;;;;;;5094505;28;20464;-60
2022/08/26 08:27:59;;;;;;;9.30;7.13;;;37.70;93.10;;;;;;5094791;28;20562;-55
2022/08/26 08:30:27;;;;;;;9.93;6.70;;;38.30;90.70;;;;;;5094724;28;20742;-59
2022/08/26 08:32:54;;;;;;;11.00;7.23;;;38.80;85.40;;;;;;5093723;28;20489;-61
2022/08/26 08:35:22;;;;;;;11.80;7.23;;;39.20;81.20;;;;;;5094896;28;20498;-65
2022/08/26 08:37:53;;;;;;;8.80;6.57;;;39.40;78.00;;;;;;5094659;28;20522;-59
2022/08/26 08:40:21;;;;;;;24.50;8.10;;;39.00;76.60;;;;;;5094590;28;20418;-59
2022/08/26 08:42:56;;;;;;;15.33;7.70;;;38.40;77.30;;;;;;5094750;28;20469;-59
2022/08/26 08:45:31;;;;;;;8.90;7.00;;;37.70;79.40;;;;;;5094163;28;20851;-61
2022/08/26 08:48:01;;;;;;;10.20;6.93;;;37.50;79.90;;;;;;5094614;28;20928;-61
2022/08/26 08:50:32;;;;;;;10.47;6.40;;;37.70;80.50;;;;;;5094776;28;20442;-59
2022/08/26 08:53:10;;;;;;;13.17;6.87;;;37.90;79.30;;;;;;5094556;28;20555;-58
2022/08/26 08:55:46;;;;;;;9.87;6.80;;;38.10;78.50;;;;;;5094566;28;20491;-61
2022/08/26 08:58:17;;;;;;;10.93;6.40;;;38.20;77.50;;;;;;5094505;28;20559;-63
2022/08/26 09:00:51;;;;;;;12.60;6.90;;;38.40;77.20;;;;;;5094208;28;20458;-59
2022/08/26 09:03:30;;;;;;;12.30;7.17;;;38.60;75.90;;;;;;5094324;28;20929;-59
2022/08/26 09:05:59;;;;;;;12.50;6.40;;;38.50;74.70;;;;;;5094237;28;20865;-59
2022/08/26 09:08:29;;;;;;;10.67;7.30;;;37.90;76.20;;;;;;5094268;28;20473;-59
2022/08/26 09:10:59;;;;;;;9.23;6.47;;;37.20;78.30;;;;;;5094073;28;20755;-56
2022/08/26 09:13:26;;;;;;;12.13;8.47;;;36.70;80.20;;;;;;5093957;28;20504;-58
2022/08/26 09:16:03;;;;;;;10.20;7.00;;;36.00;82.70;;;;;;5094405;28;20452;-60
2022/08/26 09:18:48;;;;;;;14.03;6.93;;;35.70;84.60;;;;;;5094237;28;20475;-59
2022/08/26 09:21:16;;;;;;;10.87;6.30;;;35.50;85.80;;;;;;5094001;28;20440;-60
2022/08/26 09:23:44;;;;;;;8.40;5.90;;;35.30;85.40;;;;;;5094082;28;20465;-59
2022/08/26 09:26:17;;;;;;;13.17;6.00;;;34.80;87.20;;;;;;5095197;28;20820;-58
2022/08/26 09:28:47;;;;;;;14.67;7.33;;;34.40;87.90;;;;;;5094190;28;20469;-58
2022/08/26 09:31:23;;;;;;;11.30;6.40;;;34.00;90.20;;;;;;5093918;28;20426;-61
2022/08/26 09:34:06;;;;;;;10.50;6.67;;;33.50;91.60;;;;;;5093998;28;20535;-58
2022/08/26 09:36:37;;;;;;;17.67;7.10;;;33.40;92.50;;;;;;5094072;28;20760;-58
2022/08/26 09:39:04;;;;;;;11.63;6.50;;;33.50;92.90;;;;;;5094112;28;20475;-58
2022/08/26 09:41:34;;;;;;;11.70;7.57;;;33.70;93.10;;;;;;5093688;28;20759;-61
2022/08/26 09:44:19;;;;;;;8.97;7.50;;;34.00;92.80;;;;;;5096007;28;20477;-58
2022/08/26 09:47:01;;;;;;;16.53;8.37;;;34.30;92.50;;;;;;5097655;28;20433;-58
2022/08/26 09:49:31;;;;;;;10.93;6.30;;;34.60;92.10;;;;;;5097651;28;20584;-58
2022/08/26 09:52:15;;;;;;;8.10;6.27;;;34.90;91.20;;;;;;5098400;28;20434;-57
2022/08/26 09:54:44;;;;;;;8.77;5.93;;;35.20;90.60;;;;;;5097746;28;20794;-57
2022/08/26 09:57:21;;;;;;;11.43;5.70;;;35.60;89.10;;;;;;5097190;28;20536;-58
2022/08/26 09:59:49;;;;;;;7.33;6.30;;;35.80;87.20;;;;;;5097502;28;20476;-54
2022/08/26 10:02:37;;;;;;;16.87;8.53;;;35.90;87.50;;;;;;5097303;28;20808;-58
2022/08/26 10:05:07;;;;;;;12.43;8.60;;;36.30;87.20;;;;;;5093696;28;20508;-58
2022/08/26 10:07:39;;;;;;;12.20;5.97;;;36.50;84.40;;;;;;5097520;28;20781;-57
2022/08/26 10:10:08;;;;;;;12.80;6.30;;;36.30;83.80;;;;;;5097231;28;20465;-55
2022/08/26 10:12:42;;;;;;;9.20;5.30;;;35.90;84.30;;;;;;5096767;28;20581;-62
2022/08/26 10:15:11;;;;;;;11.67;5.87;;;35.70;84.60;;;;;;5098044;28;20512;-57
2022/08/26 10:17:49;;;;;;;11.17;8.10;;;35.90;84.90;;;;;;5097011;28;20500;-57
2022/08/26 10:20:21;;;;;;;19.30;6.63;;;36.40;84.10;;;;;;5096829;28;20573;-56
2022/08/26 10:22:55;;;;;;;7.33;5.27;;;36.90;82.60;;;;;;5097049;28;20426;-57
2022/08/26 10:25:26;;;;;;;10.90;5.80;;;37.30;80.50;;;;;;5097063;28;20754;-56
2022/08/26 10:28:06;;;;;;;12.87;7.00;;;37.60;78.50;;;;;;5097203;28;20517;-56
2022/08/26 10:30:38;;;;;;;16.90;7.43;;;38.00;76.00;;;;;;5097674;28;20521;-57
2022/08/26 10:33:09;;;;;;;11.70;6.13;;;38.20;74.90;;;;;;5097823;28;20465;-58
2022/08/26 10:35:42;;;;;;;12.90;7.03;;;38.10;74.20;;;;;;5096825;28;20437;-58
2022/08/26 10:38:14;;;;;;;14.00;6.60;;;38.00;74.00;;;;;;5096710;28;20749;-58
2022/08/26 10:40:51;;;;;;;12.20;8.17;;;38.10;72.20;;;;;;5096418;28;20441;-57
2022/08/26 10:43:23;;;;;;;15.87;6.60;;;37.50;73.70;;;;;;5096259;28;20936;-57
2022/08/26 10:45:52;;;;;;;9.57;5.90;;;36.90;76.20;;;;;;5096570;28;20548;-58
2022/08/26 10:48:25;;;;;;;11.27;6.90;;;36.20;77.10;;;;;;5096928;28;20440;-60
2022/08/26 10:50:52;;;;;;;10.90;5.90;;;35.60;79.90;;;;;;5096935;28;20426;-61
2022/08/26 10:53:30;;;;;;;12.77;7.60;;;35.10;80.90;;;;;;5096140;28;20977;-58
2022/08/26 10:56:04;;;;;;;11.47;5.90;;;34.70;83.10;;;;;;5095485;28;20464;-58
2022/08/26 10:58:52;;;;;;;10.67;6.20;;;34.30;84.10;;;;;;5096152;28;20878;-57
2022/08/26 11:01:44;;;;;;;16.10;7.77;;;34.20;87.00;;;;;;5097268;28;20425;-56
2022/08/26 11:04:27;;;;;;;9.87;8.07;;;34.10;87.20;;;;;;5096085;28;20480;-57
2022/08/26 11:07:27;;;;;;;9.97;7.10;;;33.80;88.30;;;;;;5096489;28;20497;-58
2022/08/26 11:09:54;;;;;;;15.80;6.87;;;33.30;90.60;;;;;;5096222;28;20461;-58
2022/08/26 11:12:53;;;;;;;6.90;6.20;;;32.90;91.50;;;;;;5095625;28;20463;-58
2022/08/26 11:16:08;;;;;;;12.43;6.80;;;32.50;92.10;;;;;;5096024;28;20530;-60
2022/08/26 11:18:38;;;;;;;11.60;6.53;;;32.00;93.40;;;;;;5096154;28;20532;-58
2022/08/26 11:21:46;;;;;;;12.93;6.17;;;31.70;95.10;;;;;;5095517;28;20454;-54
2022/08/26 11:24:41;;;;;;;11.03;6.30;;;31.40;97.00;;;;;;5095740;28;20465;-60
2022/08/26 11:27:11;;;;;;;14.67;10.33;;;31.20;98.80;;;;;;5096399;28;20445;-57
2022/08/26 11:30:01;;;;;;;15.53;7.17;;;30.90;99.90;;;;;;5095629;28;20857;-55
2022/08/26 11:32:46;;;;;;;11.57;7.37;;;30.80;99.90;;;;;;5095530;28;20930;-58
2022/08/26 11:35:49;;;;;;;9.93;6.57;;;30.60;99.90;;;;;;5096203;28;20472;-60
2022/08/26 11:38:22;;;;;;;14.20;6.80;;;30.50;99.90;;;;;;5095351;28;20784;-58
2022/08/26 11:41:06;;;;;;;15.57;8.00;;;30.40;99.90;;;;;;5095125;28;20520;-58
2022/08/26 11:43:33;;;;;;;10.03;6.97;;;30.20;99.90;;;;;;5095221;28;20429;-53
2022/08/26 11:46:04;;;;;;;13.27;6.30;;;30.10;99.90;;;;;;5096241;28;20473;-59
2022/08/26 11:48:33;;;;;;;21.23;8.30;;;30.00;99.90;;;;;;5095059;28;20521;-57
2022/08/26 11:51:03;;;;;;;10.80;8.00;;;29.90;99.90;;;;;;5095265;28;20589;-55
2022/08/26 11:53:33;;;;;;;9.57;7.90;;;29.90;99.90;;;;;;5095571;28;20473;-61
2022/08/26 11:56:04;;;;;;;12.10;7.50;;;29.70;99.90;;;;;;5095600;28;20465;-59
2022/08/26 11:58:32;;;;;;;9.90;7.50;;;29.60;99.90;;;;;;5095264;28;20442;-60
2022/08/26 12:01:01;;;;;;;9.70;7.17;;;29.50;99.90;;;;;;5095276;28;20476;-59
2022/08/26 12:03:36;;;;;;;19.63;8.07;;;29.10;99.90;;;;;;5096018;28;20441;-62
2022/08/26 12:06:10;;;;;;;11.40;8.40;;;28.70;99.90;;;;;;5095129;28;20468;-58
2022/08/26 12:08:42;;;;;;;15.07;8.73;;;28.40;99.90;;;;;;5094924;28;20440;-58
2022/08/26 12:11:13;;;;;;;6.60;5.93;;;28.10;99.90;;;;;;5095162;28;20565;-59
2022/08/26 12:13:41;;;;;;;7.57;6.33;;;27.70;99.90;;;;;;5095448;28;20465;-59
2022/08/26 12:16:09;;;;;;;6.33;5.00;;;27.30;99.90;;;;;;5095027;28;20461;-62
2022/08/26 12:18:38;;;;;;;7.70;4.40;;;26.90;99.90;;;;;;5094515;28;20453;-59
2022/08/26 12:21:12;;;;;;;7.30;4.40;;;26.60;99.90;;;;;;5094727;28;20481;-61
2022/08/26 12:23:44;;;;;;;8.33;4.33;;;26.20;99.90;;;;;;5095202;28;20854;-61
2022/08/26 12:26:19;;;;;;;6.60;4.43;;;25.80;99.90;;;;;;5094886;28;20440;-56
2022/08/26 12:28:50;;;;;;;5.83;4.57;;;25.50;99.90;;;;;;5094609;28;20502;-58
2022/08/26 12:31:27;;;;;;;9.57;4.17;;;25.30;99.90;;;;;;5095366;28;20429;-61
2022/08/26 12:33:55;;;;;;;5.97;4.90;;;25.10;99.90;;;;;;5095025;28;20526;-60
2022/08/26 12:36:26;;;;;;;7.93;5.20;;;25.00;99.90;;;;;;5094687;28;20470;-56
2022/08/26 12:38:55;;;;;;;6.93;5.30;;;24.90;99.90;;;;;;5094891;28;20469;-61
2022/08/26 12:41:47;;;;;;;6.27;4.60;;;24.80;99.90;;;;;;5095695;28;20538;-59
2022/08/26 12:44:33;;;;;;;8.67;4.07;;;24.70;99.90;;;;;;5094778;28;20458;-59
2022/08/26 12:47:08;;;;;;;6.40;4.07;;;24.50;99.90;;;;;;5094500;28;20438;-55
2022/08/26 12:49:35;;;;;;;5.63;4.43;;;24.50;99.90;;;;;;5094727;28;20947;-63
2022/08/26 12:52:02;;;;;;;5.17;4.10;;;24.40;99.90;;;;;;5094976;28;20434;-60
2022/08/26 12:57:13;;;;;;;6.97;3.97;;;24.20;99.90;;;;;;5093149;28;20543;-58
2022/08/26 12:59:40;;;;;;;8.27;4.70;;;24.00;99.90;;;;;;5094458;28;20446;-59
2022/08/26 13:02:07;;;;;;;11.40;4.10;;;23.70;99.90;;;;;;5094766;28;20426;-61